Mabton, Washington
Current Conditions -  °F | °C
As of 6:53 PM on Monday 26 Jan 2015 (Local Time) from KYKM Reporting Station
Haze Haze  
Wind Chill: 37°   Ceiling: 200
Heat Index: 37°   Visibility: 0.5mi
Dew Point: 35°   Wind: 3mph
Humidity: 93%   Direction: 270°W
Pressure: 30.03"   Gusts: NA
Location:  46.21°N, 120°W
Report Text: KYKM 270253Z 27003KT 1/2SM R27/3000V4500FT BR OVC002 03/02 A3003 RMK AO2 SFC VIS 3/4 SLP178 T00280017 55003
Loading
Personal Weather Stations






























Interactive Weather Map New forecast layout! Learn more

10-Day Weather Forecast

Advertisements
Track Severe Weather on mobile